Time;durP1;ratioP1;P1;durP2;ratioP2;P2;SDS_P1;SDS_P2;PMS_P1;PMS_P2;Temp;Humidity;BMP_temperature;BMP_pressure;BME280_temperature;BME280_humidity;BME280_pressure;Samples;Min_cycle;Max_cycle;Signal;HPM_P1;HPM_P2
2022/03/01 00:00:00;;;;;;;14.82;7.63;;;;;;;2.55;36.13;102909.59;5053853;28;20049;-69
2022/03/01 00:02:26;;;;;;;19.42;8.82;;;;;;;2.94;35.61;102909.06;5053593;28;20075;-67
2022/03/01 00:04:53;;;;;;;20.27;8.70;;;;;;;2.54;36.27;102915.78;5052359;28;20056;-67
2022/03/01 00:07:19;;;;;;;17.90;7.72;;;;;;;2.84;35.76;102896.13;5051063;28;20493;-69
2022/03/01 00:09:46;;;;;;;17.38;8.05;;;;;;;2.19;36.64;102899.31;5051765;28;20073;-68
2022/03/01 00:12:12;;;;;;;18.40;8.23;;;;;;;2.31;37.11;102906.88;5052408;28;20121;-68
2022/03/01 00:14:39;;;;;;;17.65;7.72;;;;;;;1.56;37.64;102900.50;5052888;28;20112;-68
2022/03/01 00:17:05;;;;;;;17.70;8.07;;;;;;;2.80;36.02;102894.50;5052202;28;20048;-69
2022/03/01 00:19:32;;;;;;;18.88;8.73;;;;;;;2.31;36.62;102903.34;5052462;28;20496;-68
2022/03/01 00:21:59;;;;;;;22.25;8.18;;;;;;;2.79;35.84;102895.44;5052866;28;20450;-69
2022/03/01 00:24:25;;;;;;;21.00;8.60;;;;;;;2.37;36.48;102890.75;5052439;28;20366;-67
2022/03/01 00:26:52;;;;;;;21.08;8.38;;;;;;;2.03;37.75;102896.34;5051344;28;20132;-69
2022/03/01 00:29:18;;;;;;;19.25;8.57;;;;;;;1.79;37.90;102897.13;5051851;28;20073;-68
2022/03/01 00:31:45;;;;;;;17.00;8.57;;;;;;;2.26;36.77;102892.91;5052503;28;20149;-69
2022/03/01 00:34:11;;;;;;;17.52;8.50;;;;;;;1.98;37.32;102895.63;5051538;28;20057;-69
2022/03/01 00:36:38;;;;;;;18.40;8.18;;;;;;;2.01;37.11;102881.44;5052266;28;20095;-68
2022/03/01 00:39:07;;;;;;;21.25;8.75;;;;;;;2.37;36.78;102871.34;5052403;28;20106;-68
2022/03/01 00:41:33;;;;;;;20.27;8.90;;;;;;;2.25;37.00;102885.88;5052625;28;20136;-69
2022/03/01 00:44:00;;;;;;;23.27;9.48;;;;;;;2.18;37.40;102876.41;5053129;28;20538;-69
2022/03/01 00:46:26;;;;;;;14.15;7.97;;;;;;;2.51;36.57;102871.72;5034393;28;20056;-69
2022/03/01 00:48:54;;;;;;;22.15;9.52;;;;;;;2.93;36.04;102878.13;5051493;28;21790;-69
2022/03/01 00:51:21;;;;;;;22.42;9.30;;;;;;;1.93;37.46;102885.19;5052112;28;20068;-69
2022/03/01 00:53:47;;;;;;;17.40;8.23;;;;;;;2.32;36.99;102871.50;5051952;28;20072;-68
2022/03/01 00:56:14;;;;;;;24.63;9.13;;;;;;;3.10;35.19;102871.28;5051417;28;20076;-68
2022/03/01 00:58:40;;;;;;;24.05;9.93;;;;;;;2.91;35.97;102875.56;5051761;28;20049;-68
2022/03/01 01:01:07;;;;;;;22.17;8.75;;;;;;;2.30;36.32;102878.63;5051731;28;20057;-68
2022/03/01 01:03:34;;;;;;;17.80;8.27;;;;;;;2.45;36.38;102868.44;5049466;28;20049;-69
2022/03/01 01:06:02;;;;;;;21.92;9.63;;;;;;;2.57;36.62;102867.97;5052184;28;20430;-69
2022/03/01 01:08:28;;;;;;;18.67;8.88;;;;;;;2.62;36.33;102871.34;5051164;28;20124;-69
2022/03/01 01:10:55;;;;;;;19.10;8.40;;;;;;;2.73;35.77;102870.94;5051098;28;20132;-69
2022/03/01 01:13:21;;;;;;;25.67;9.32;;;;;;;2.89;35.52;102872.97;5051300;28;20536;-68
2022/03/01 01:15:48;;;;;;;21.27;8.98;;;;;;;2.79;35.82;102868.94;5050382;28;20055;-69
2022/03/01 01:18:14;;;;;;;22.63;9.10;;;;;;;2.93;35.54;102872.84;5051341;28;20410;-68
2022/03/01 01:20:41;;;;;;;19.02;8.75;;;;;;;2.64;35.91;102874.78;5047675;28;20108;-68
2022/03/01 01:23:08;;;;;;;19.45;8.77;;;;;;;3.24;34.93;102864.56;5046016;28;20473;-69
2022/03/01 01:25:34;;;;;;;17.77;8.68;;;;;;;2.64;35.84;102864.19;5052035;28;20128;-69
2022/03/01 01:28:01;;;;;;;20.38;8.95;;;;;;;2.51;36.40;102858.50;5051336;28;20068;-69
2022/03/01 01:30:33;;;;;;;26.02;9.10;;;;;;;2.43;36.41;102863.19;5050421;28;20064;-69
2022/03/01 01:33:00;;;;;;;17.50;8.77;;;;;;;2.90;35.54;102857.94;5051335;28;20041;-69
2022/03/01 01:35:29;;;;;;;22.23;8.90;;;;;;;3.17;34.97;102865.72;5050754;28;20068;-68
2022/03/01 01:37:56;;;;;;;21.75;9.00;;;;;;;2.87;35.73;102863.34;5051041;28;20136;-69
2022/03/01 01:40:26;;;;;;;22.00;9.05;;;;;;;2.89;35.48;102857.06;5033155;28;20123;-69
2022/03/01 01:42:53;;;;;;;20.67;8.68;;;;;;;2.93;35.86;102862.22;5051161;28;20135;-69
2022/03/01 01:45:22;;;;;;;19.23;8.55;;;;;;;2.43;36.63;102856.09;5051044;28;20061;-69
2022/03/01 01:47:49;;;;;;;19.48;8.25;;;;;;;2.94;35.49;102853.38;5051252;28;20045;-69
2022/03/01 01:50:19;;;;;;;22.05;8.57;;;;;;;2.76;35.89;102861.09;5049548;28;20451;-69
2022/03/01 01:52:47;;;;;;;21.42;9.40;;;;;;;3.14;34.84;102851.69;5050727;28;20055;-69
2022/03/01 01:55:19;;;;;;;25.45;8.73;;;;;;;2.58;36.34;102851.16;5050638;28;20136;-69
2022/03/01 01:57:46;;;;;;;22.02;8.63;;;;;;;3.05;35.53;102859.13;5050045;28;20131;-69
2022/03/01 02:00:13;;;;;;;23.75;8.88;;;;;;;2.75;35.86;102862.00;5044948;28;20128;-69
2022/03/01 02:02:40;;;;;;;22.88;9.00;;;;;;;3.01;35.11;102854.88;5047514;28;20084;-69
2022/03/01 02:05:08;;;;;;;25.13;9.40;;;;;;;3.10;35.49;102860.69;5050574;28;20045;-69
2022/03/01 02:07:50;;;;;;;21.17;8.60;;;;;;;3.24;35.21;102857.50;4990732;28;20153;-69
2022/03/01 02:10:17;;;;;;;22.02;9.95;;;;;;;3.01;35.60;102863.69;4989162;28;20073;-69
2022/03/01 02:12:45;;;;;;;21.35;9.55;;;;;;;2.29;36.19;102861.00;4972638;28;20145;-69
2022/03/01 02:15:12;;;;;;;27.63;9.90;;;;;;;2.03;37.52;102853.13;4987161;28;20070;-69
2022/03/01 02:17:40;;;;;;;19.77;8.45;;;;;;;2.26;37.34;102845.22;4989358;28;20606;-69
2022/03/01 02:20:17;;;;;;;21.55;9.10;;;;;;;1.32;38.55;102850.09;4984308;28;20392;-67
2022/03/01 02:22:45;;;;;;;23.95;9.70;;;;;;;1.89;37.99;102849.13;4988981;28;20392;-67
2022/03/01 02:25:12;;;;;;;21.40;9.40;;;;;;;1.39;38.77;102845.47;4988740;28;20121;-69
2022/03/01 02:27:39;;;;;;;20.58;9.05;;;;;;;1.71;38.22;102839.13;4988814;28;20465;-69
2022/03/01 02:30:07;;;;;;;21.23;9.55;;;;;;;1.40;38.81;102836.63;4987576;28;20081;-69
2022/03/01 02:32:35;;;;;;;23.67;8.52;;;;;;;1.31;39.23;102836.94;5007156;28;20049;-68
2022/03/01 02:35:03;;;;;;;21.33;8.55;;;;;;;0.92;39.91;102838.13;5007178;28;20100;-69
2022/03/01 02:37:32;;;;;;;21.83;9.47;;;;;;;1.06;39.46;102832.41;5008860;28;20070;-68
2022/03/01 02:39:59;;;;;;;18.50;8.95;;;;;;;1.46;38.53;102826.72;5044833;28;20341;-69
2022/03/01 02:42:27;;;;;;;27.88;10.20;;;;;;;1.95;38.16;102835.69;5042523;28;20485;-67
2022/03/01 02:44:54;;;;;;;23.88;9.80;;;;;;;1.23;39.10;102835.41;5053795;28;20053;-68
2022/03/01 02:47:20;;;;;;;24.45;8.98;;;;;;;1.32;39.26;102839.53;5053583;28;20076;-69
2022/03/01 02:49:47;;;;;;;20.90;9.50;;;;;;;1.80;38.01;102832.69;5057606;28;20083;-69
2022/03/01 02:52:13;;;;;;;24.65;8.63;;;;;;;1.70;38.36;102834.78;5073817;28;20127;-69
2022/03/01 02:54:40;;;;;;;20.00;9.38;;;;;;;1.49;38.63;102833.69;5073877;28;20076;-68
2022/03/01 02:57:06;;;;;;;21.42;9.50;;;;;;;1.31;39.37;102832.50;5074317;28;20044;-69
2022/03/01 02:59:33;;;;;;;26.10;9.73;;;;;;;1.74;38.48;102833.75;5074275;28;20054;-68
2022/03/01 03:02:00;;;;;;;20.83;8.55;;;;;;;1.95;37.97;102833.06;5074076;28;20056;-68
2022/03/01 03:04:27;;;;;;;24.00;9.50;;;;;;;1.44;38.45;102833.00;5074130;28;20078;-68
2022/03/01 03:06:53;;;;;;;22.13;9.18;;;;;;;2.01;37.61;102831.13;5074394;28;20048;-69
2022/03/01 03:09:21;;;;;;;23.15;9.90;;;;;;;2.33;37.17;102836.13;5074447;28;20082;-69
2022/03/01 03:11:48;;;;;;;29.25;9.32;;;;;;;2.14;37.39;102830.66;5074099;28;20048;-67
2022/03/01 03:14:15;;;;;;;24.08;9.18;;;;;;;2.36;37.14;102841.34;5073674;28;20048;-69
2022/03/01 03:16:44;;;;;;;21.00;9.35;;;;;;;1.43;38.55;102832.09;5064736;28;20044;-67
2022/03/01 03:19:13;;;;;;;22.20;9.68;;;;;;;1.82;38.23;102826.44;5074555;28;20577;-67
2022/03/01 03:21:39;;;;;;;21.45;9.43;;;;;;;1.28;38.82;102831.75;5073057;28;20082;-68
2022/03/01 03:24:05;;;;;;;23.63;9.95;;;;;;;1.95;37.69;102822.47;5073140;28;20131;-68
2022/03/01 03:26:32;;;;;;;23.80;9.05;;;;;;;2.46;36.77;102828.63;5072412;28;20136;-68
2022/03/01 03:28:58;;;;;;;25.52;10.30;;;;;;;1.99;37.45;102825.00;5072012;28;20139;-68
2022/03/01 03:31:25;;;;;;;23.48;9.68;;;;;;;2.25;37.23;102827.63;5071831;28;20131;-68
2022/03/01 03:33:51;;;;;;;24.23;8.85;;;;;;;2.08;37.40;102832.63;5072747;28;20059;-68
2022/03/01 03:36:18;;;;;;;19.17;10.05;;;;;;;2.50;36.40;102826.72;5072988;28;20127;-69
2022/03/01 03:38:44;;;;;;;27.50;10.23;;;;;;;1.88;37.30;102822.69;5072055;28;20072;-68
2022/03/01 03:41:11;;;;;;;24.63;10.40;;;;;;;2.34;37.05;102823.75;5073120;28;20136;-68
2022/03/01 03:43:37;;;;;;;20.27;9.10;;;;;;;1.37;38.36;102832.31;5062999;28;20139;-68
2022/03/01 03:46:04;;;;;;;25.65;10.55;;;;;;;2.37;36.87;102815.72;5061959;28;20079;-68
2022/03/01 03:48:30;;;;;;;22.55;9.73;;;;;;;1.59;37.93;102827.19;5071587;28;20484;-68
2022/03/01 03:50:57;;;;;;;20.92;9.40;;;;;;;1.51;38.49;102823.06;5072153;28;20049;-68
2022/03/01 03:53:23;;;;;;;22.92;9.70;;;;;;;0.81;39.39;102831.41;5074675;28;20476;-68
2022/03/01 03:55:50;;;;;;;20.58;9.63;;;;;;;1.66;37.92;102822.56;5073719;28;20242;-68
2022/03/01 03:58:16;;;;;;;22.92;9.52;;;;;;;0.82;39.56;102828.72;5073910;28;20064;-68
2022/03/01 04:00:43;;;;;;;23.77;9.45;;;;;;;1.48;38.46;102824.91;5074266;28;20045;-67
2022/03/01 04:03:09;;;;;;;27.15;10.23;;;;;;;1.62;38.27;102827.09;5074330;28;20048;-67
2022/03/01 04:05:36;;;;;;;28.08;10.02;;;;;;;0.95;39.47;102831.84;5062838;28;20092;-67
2022/03/01 04:08:03;;;;;;;28.45;10.45;;;;;;;1.60;38.05;102817.47;5073049;28;20051;-67
2022/03/01 04:10:29;;;;;;;28.10;10.52;;;;;;;0.73;39.70;102827.19;5073723;28;20044;-69
2022/03/01 04:12:58;;;;;;;18.30;9.05;;;;;;;0.82;39.62;102819.94;5073333;28;20064;-67
2022/03/01 04:15:25;;;;;;;20.30;9.75;;;;;;;1.46;38.51;102820.56;5073620;28;20056;-68
2022/03/01 04:17:51;;;;;;;22.08;9.82;;;;;;;1.05;38.87;102816.59;5073885;28;20131;-67
2022/03/01 04:20:21;;;;;;;22.30;10.15;;;;;;;1.49;38.20;102809.88;5073499;28;20049;-68
2022/03/01 04:22:48;;;;;;;20.83;9.63;;;;;;;0.61;40.10;102822.28;5073083;28;20404;-68
2022/03/01 04:25:15;;;;;;;22.35;10.38;;;;;;;1.67;38.36;102808.41;5073485;28;20128;-68
2022/03/01 04:27:42;;;;;;;32.70;9.25;;;;;;;1.95;37.42;102798.63;5073835;28;20131;-68
2022/03/01 04:30:11;;;;;;;21.55;9.75;;;;;;;2.12;36.78;102799.84;5073754;28;20068;-68
2022/03/01 04:32:37;;;;;;;28.23;10.25;;;;;;;1.48;38.10;102802.88;5073314;28;20052;-68
2022/03/01 04:35:05;;;;;;;25.67;10.82;;;;;;;1.71;37.73;102799.44;5073048;28;20068;-70
2022/03/01 04:37:32;;;;;;;25.05;9.77;;;;;;;1.78;37.63;102793.03;5073177;28;21909;-68
2022/03/01 04:39:58;;;;;;;23.85;10.10;;;;;;;1.35;38.41;102791.81;5073144;28;20086;-69
2022/03/01 04:42:25;;;;;;;25.25;10.43;;;;;;;2.07;37.10;102788.56;5073297;28;20464;-68
2022/03/01 04:44:52;;;;;;;26.92;9.95;;;;;;;1.86;37.45;102800.72;5073353;28;20123;-68
2022/03/01 04:47:18;;;;;;;25.42;9.80;;;;;;;1.41;37.91;102798.69;5073308;28;20048;-68
2022/03/01 04:49:45;;;;;;;23.38;9.77;;;;;;;1.51;37.90;102797.50;5072832;28;20120;-68
2022/03/01 04:52:11;;;;;;;23.52;10.27;;;;;;;1.68;37.68;102794.25;5072892;28;20132;-68
2022/03/01 04:54:38;;;;;;;26.48;9.93;;;;;;;0.82;38.90;102802.31;5072317;28;20054;-68
2022/03/01 04:57:04;;;;;;;24.30;9.93;;;;;;;1.60;37.78;102796.31;5072952;28;20124;-68
2022/03/01 04:59:31;;;;;;;23.30;9.88;;;;;;;1.85;37.01;102798.97;5072648;28;20165;-69
2022/03/01 05:01:57;;;;;;;22.60;9.57;;;;;;;1.69;37.54;102801.31;5072521;28;20054;-70
2022/03/01 05:04:24;;;;;;;30.98;11.35;;;;;;;1.83;37.26;102804.34;5062468;28;20050;-69
2022/03/01 05:06:51;;;;;;;23.85;10.95;;;;;;;1.67;37.38;102803.13;5072174;28;20083;-69
2022/03/01 05:09:18;;;;;;;23.40;10.27;;;;;;;1.80;37.23;102799.16;5072507;28;20133;-69
2022/03/01 05:11:44;;;;;;;28.15;10.48;;;;;;;1.59;37.64;102805.16;5072702;28;20040;-69
2022/03/01 05:14:11;;;;;;;20.40;9.82;;;;;;;1.60;37.77;102796.31;5073128;28;20120;-68
2022/03/01 05:16:38;;;;;;;22.63;9.93;;;;;;;1.90;37.12;102810.28;5072143;28;20051;-68
2022/03/01 05:19:04;;;;;;;24.80;9.38;;;;;;;1.33;38.05;102809.50;5072202;28;20051;-69
2022/03/01 05:21:31;;;;;;;23.63;9.20;;;;;;;1.33;38.16;102812.16;5071611;28;20119;-69
2022/03/01 05:23:57;;;;;;;25.98;10.88;;;;;;;1.60;37.42;102813.03;5072321;28;20055;-69
2022/03/01 05:26:24;;;;;;;23.88;9.88;;;;;;;0.79;38.72;102807.69;5072528;28;20045;-68
2022/03/01 05:28:50;;;;;;;30.08;10.75;;;;;;;1.74;37.73;102799.34;5072705;28;20480;-69
2022/03/01 05:31:24;;;;;;;25.88;9.60;;;;;;;1.36;37.75;102800.63;5071592;28;20436;-69
2022/03/01 05:33:50;;;;;;;25.63;10.43;;;;;;;1.37;38.22;102805.88;5071704;28;20464;-69
2022/03/01 05:36:17;;;;;;;33.83;9.48;;;;;;;1.64;37.25;102801.44;5072293;28;20076;-68
2022/03/01 05:38:44;;;;;;;23.98;10.25;;;;;;;0.76;39.02;102808.63;5072569;28;20489;-68
2022/03/01 05:41:10;;;;;;;27.35;9.90;;;;;;;0.84;38.58;102818.09;5072511;28;20117;-70
2022/03/01 05:43:38;;;;;;;27.33;10.30;;;;;;;0.67;39.34;102815.94;5072289;28;20048;-70
2022/03/01 05:46:07;;;;;;;31.15;10.23;;;;;;;0.35;39.62;102816.88;5054128;28;20135;-69
2022/03/01 05:48:34;;;;;;;31.95;10.40;;;;;;;0.64;39.32;102813.38;5072199;28;20056;-69
2022/03/01 05:51:01;;;;;;;25.35;10.90;;;;;;;0.94;39.28;102824.84;5072192;28;20064;-68
2022/03/01 05:53:27;;;;;;;27.45;9.93;;;;;;;0.40;39.84;102818.50;5072113;28;20445;-69
2022/03/01 05:55:53;;;;;;;26.92;10.00;;;;;;;0.47;39.70;102822.69;5072257;28;20136;-69
2022/03/01 05:58:20;;;;;;;32.10;10.82;;;;;;;0.60;39.79;102820.53;5072325;28;20037;-69
2022/03/01 06:00:47;;;;;;;21.90;9.57;;;;;;;0.27;39.90;102820.59;5072865;28;20123;-68
2022/03/01 06:03:13;;;;;;;26.75;10.57;;;;;;;1.01;38.85;102815.81;5072291;28;20048;-69
2022/03/01 06:05:40;;;;;;;23.90;9.90;;;;;;;0.55;39.60;102821.59;5072187;28;20046;-68
2022/03/01 06:08:06;;;;;;;24.70;9.25;;;;;;;-0.23;41.12;102824.56;5072018;28;20060;-69
2022/03/01 06:10:32;;;;;;;36.08;10.15;;;;;;;0.91;39.25;102823.16;5064600;28;20056;-68
2022/03/01 06:12:59;;;;;;;25.17;9.88;;;;;;;0.69;39.11;102825.56;5065778;28;20131;-67
2022/03/01 06:15:26;;;;;;;24.77;10.95;;;;;;;0.80;39.08;102822.59;5070944;28;20050;-69
2022/03/01 06:17:52;;;;;;;25.58;9.98;;;;;;;-0.34;41.01;102837.16;5071675;28;20471;-68
2022/03/01 06:20:19;;;;;;;24.08;8.90;;;;;;;-0.44;41.30;102829.44;5074053;28;20123;-68
2022/03/01 06:22:46;;;;;;;23.27;9.23;;;;;;;1.04;39.19;102828.06;5074556;28;20474;-67
2022/03/01 06:25:16;;;;;;;30.10;9.63;;;;;;;0.63;39.33;102832.81;5075739;28;20442;-68
2022/03/01 06:27:43;;;;;;;24.85;9.68;;;;;;;0.65;39.37;102831.00;5076275;28;20403;-68
2022/03/01 06:30:11;;;;;;;24.23;9.85;;;;;;;0.53;40.04;102824.28;5075670;28;20129;-70
2022/03/01 06:32:37;;;;;;;23.02;9.30;;;;;;;0.09;40.51;102829.00;5064864;28;20135;-68
2022/03/01 06:35:05;;;;;;;30.67;9.80;;;;;;;0.07;40.86;102827.31;5071781;28;20059;-69
2022/03/01 06:37:39;;;;;;;29.92;8.82;;;;;;;0.66;39.44;102832.72;5073580;28;20386;-69
2022/03/01 06:40:07;;;;;;;27.40;10.43;;;;;;;0.89;39.05;102822.34;5074357;28;20099;-68
2022/03/01 06:42:34;;;;;;;25.80;9.02;;;;;;;1.05;38.83;102812.16;5075633;28;20072;-68
2022/03/01 06:45:00;;;;;;;22.13;9.88;;;;;;;0.42;39.59;102819.28;5072245;28;20094;-67
2022/03/01 06:47:27;;;;;;;27.70;10.30;;;;;;;0.88;39.10;102815.31;5074175;28;20060;-68
2022/03/01 06:49:54;;;;;;;30.45;10.25;;;;;;;1.77;37.58;102807.19;5076339;28;20052;-68
2022/03/01 06:52:20;;;;;;;32.65;10.98;;;;;;;1.27;38.48;102812.38;5077575;28;20045;-68
2022/03/01 06:54:47;;;;;;;24.55;10.07;;;;;;;1.43;38.22;102812.72;5062515;28;20044;-70
2022/03/01 06:57:15;;;;;;;21.88;9.30;;;;;;;1.57;37.81;102812.28;5080238;28;20044;-69
2022/03/01 06:59:41;;;;;;;22.27;9.77;;;;;;;1.43;37.71;102813.59;5076257;28;20116;-69
2022/03/01 07:02:08;;;;;;;24.00;10.65;;;;;;;1.57;37.15;102810.50;5075209;28;20447;-69
2022/03/01 07:04:35;;;;;;;23.73;9.98;;;;;;;0.59;39.23;102812.69;5073332;28;20045;-69
2022/03/01 07:07:02;;;;;;;23.70;9.88;;;;;;;1.24;38.44;102809.81;5073126;28;20048;-70
2022/03/01 07:09:28;;;;;;;26.13;9.95;;;;;;;0.77;38.90;102820.06;5073650;28;20536;-70
2022/03/01 07:11:56;;;;;;;19.13;8.13;;;;;;;0.07;40.21;102822.91;5072670;28;20110;-69
2022/03/01 07:14:23;;;;;;;24.73;9.18;;;;;;;-0.28;40.86;102818.53;5071610;28;20115;-69
2022/03/01 07:16:49;;;;;;;24.85;10.27;;;;;;;0.77;38.90;102818.28;5074789;28;20135;-69
2022/03/01 07:19:16;;;;;;;30.27;9.40;;;;;;;1.14;38.73;102818.94;5073685;28;20044;-69
2022/03/01 07:21:42;;;;;;;26.55;9.07;;;;;;;0.69;39.33;102816.78;5073017;28;20064;-68
2022/03/01 07:24:09;;;;;;;21.70;9.25;;;;;;;0.53;39.03;102825.13;5072257;28;20147;-69
2022/03/01 07:26:36;;;;;;;33.15;10.00;;;;;;;1.20;38.06;102821.41;5072007;28;20064;-68
2022/03/01 07:29:03;;;;;;;24.50;9.52;;;;;;;1.97;37.15;102810.97;5072879;28;20048;-69
2022/03/01 07:31:30;;;;;;;25.05;10.30;;;;;;;1.33;37.51;102816.59;5072829;28;20064;-70
2022/03/01 07:33:56;;;;;;;24.80;9.07;;;;;;;1.61;37.50;102822.72;5072245;28;20072;-69
2022/03/01 07:36:24;;;;;;;25.95;8.77;;;;;;;1.06;37.88;102823.59;5073637;28;20041;-69
2022/03/01 07:38:51;;;;;;;23.98;9.02;;;;;;;1.71;36.70;102813.56;5072892;28;20143;-69
2022/03/01 07:41:17;;;;;;;28.23;9.25;;;;;;;3.21;34.01;102819.63;5073742;28;20078;-69
2022/03/01 07:43:46;;;;;;;18.55;8.88;;;;;;;2.84;34.36;102816.59;5072460;28;20044;-69
2022/03/01 07:46:13;;;;;;;24.58;8.57;;;;;;;3.00;34.10;102806.28;5072470;28;20480;-69
2022/03/01 07:48:41;;;;;;;24.85;9.07;;;;;;;3.19;33.94;102813.50;5073202;28;20479;-69
2022/03/01 07:51:08;;;;;;;21.67;7.85;;;;;;;2.89;34.06;102809.34;5072887;28;20076;-69
2022/03/01 07:53:35;;;;;;;29.00;9.60;;;;;;;2.81;34.22;102811.41;5072705;28;20052;-69
2022/03/01 07:56:02;;;;;;;26.08;8.88;;;;;;;3.15;33.83;102810.97;5072768;28;20056;-69
2022/03/01 07:58:28;;;;;;;26.52;8.23;;;;;;;3.10;34.29;102807.66;5071562;28;20424;-69
2022/03/01 08:00:55;;;;;;;19.27;8.57;;;;;;;2.28;34.42;102810.75;5071808;28;20072;-69
2022/03/01 08:03:22;;;;;;;20.15;8.00;;;;;;;3.45;33.41;102792.09;5066617;28;20041;-69
2022/03/01 08:05:51;;;;;;;25.92;8.27;;;;;;;4.56;31.01;102797.00;5072879;28;20044;-69
2022/03/01 08:08:17;;;;;;;21.08;7.95;;;;;;;3.94;31.29;102805.09;5071707;28;20072;-69
2022/03/01 08:10:44;;;;;;;19.63;8.45;;;;;;;4.54;31.04;102796.22;5072917;28;20123;-69
2022/03/01 08:13:32;;;;;;;18.17;7.68;;;;;;;5.41;29.66;102799.16;5030281;28;20469;-70
2022/03/01 08:15:59;;;;;;;19.15;8.25;;;;;;;6.53;28.29;102789.88;5072501;28;20071;-69
2022/03/01 08:18:26;;;;;;;21.05;8.93;;;;;;;6.68;27.83;102789.91;5072397;28;20067;-69
2022/03/01 08:20:54;;;;;;;18.10;7.40;;;;;;;5.24;29.00;102792.00;5071535;28;20503;-70
2022/03/01 08:23:21;;;;;;;24.33;8.00;;;;;;;6.52;27.90;102791.69;5072991;28;20137;-69
2022/03/01 08:25:47;;;;;;;21.75;8.52;;;;;;;5.99;28.69;102796.22;5072325;28;20051;-70
2022/03/01 08:28:14;;;;;;;20.52;8.50;;;;;;;6.01;28.18;102796.16;5071511;28;20075;-70
2022/03/01 08:30:40;;;;;;;21.33;7.93;;;;;;;5.83;29.25;102799.75;5071694;28;20060;-69
2022/03/01 08:33:07;;;;;;;17.48;7.93;;;;;;;6.23;27.97;102795.91;5071367;28;20048;-69
2022/03/01 08:35:37;;;;;;;18.75;8.48;;;;;;;5.99;28.51;102790.03;5066278;28;20489;-69
2022/03/01 08:38:05;;;;;;;19.95;8.07;;;;;;;6.82;27.22;102793.63;5071910;28;20123;-69
2022/03/01 08:40:33;;;;;;;19.38;8.40;;;;;;;7.78;26.12;102792.56;5070733;28;20127;-69
2022/03/01 08:43:00;;;;;;;19.52;8.32;;;;;;;7.66;25.99;102783.47;5071970;28;20075;-70
2022/03/01 08:45:27;;;;;;;23.27;8.52;;;;;;;6.93;26.91;102785.88;5071890;28;20044;-69
2022/03/01 08:47:53;;;;;;;17.35;7.53;;;;;;;6.67;27.14;102782.00;5072556;28;20044;-69
2022/03/01 08:50:20;;;;;;;16.70;7.20;;;;;;;6.22;27.61;102771.06;5064036;28;20048;-69
2022/03/01 08:53:07;;;;;;;16.27;7.85;;;;;;;7.23;26.76;102774.44;5071157;28;20045;-69
2022/03/01 08:55:33;;;;;;;19.70;7.32;;;;;;;6.99;26.21;102766.88;5053145;28;20066;-69
2022/03/01 08:58:01;;;;;;;20.92;8.23;;;;;;;6.88;26.71;102779.97;5071402;28;20090;-69
2022/03/01 09:00:27;;;;;;;20.00;8.00;;;;;;;6.59;26.96;102774.41;5072055;28;20048;-70
2022/03/01 09:02:55;;;;;;;16.15;8.32;;;;;;;7.76;25.84;102765.94;5071542;28;20037;-69
2022/03/01 09:05:22;;;;;;;17.83;7.60;;;;;;;8.57;24.45;102770.78;5072335;28;20044;-70
2022/03/01 09:07:49;;;;;;;18.60;8.27;;;;;;;8.47;24.44;102775.88;5071421;28;20036;-69
2022/03/01 09:10:21;;;;;;;14.18;6.93;;;;;;;9.11;23.91;102765.53;5070615;28;20541;-69
2022/03/01 09:12:50;;;;;;;16.23;6.97;;;;;;;9.77;23.20;102763.81;5071602;28;20484;-69
2022/03/01 09:15:17;;;;;;;15.98;7.63;;;;;;;10.58;22.30;102754.59;5070818;28;20398;-70
2022/03/01 09:17:45;;;;;;;16.83;8.07;;;;;;;10.35;22.81;102749.03;5070127;28;20128;-70
2022/03/01 09:20:11;;;;;;;20.00;8.35;;;;;;;10.00;22.84;102748.84;5070435;28;20060;-70
2022/03/01 09:22:38;;;;;;;17.05;7.70;;;;;;;10.30;22.94;102736.88;5071441;28;20076;-69
2022/03/01 09:25:06;;;;;;;18.52;8.52;;;;;;;10.78;21.80;102745.94;5071078;28;20145;-69
2022/03/01 09:27:33;;;;;;;17.45;7.70;;;;;;;11.11;21.37;102744.44;5071906;28;20481;-69
2022/03/01 09:29:59;;;;;;;19.80;8.32;;;;;;;10.03;22.32;102748.63;5075026;28;20402;-71
2022/03/01 09:32:26;;;;;;;16.70;8.52;;;;;;;10.29;22.46;102746.75;5051431;28;20045;-72
2022/03/01 09:34:55;;;;;;;19.60;8.80;;;;;;;10.47;22.19;102736.53;5072003;28;20135;-71
2022/03/01 09:37:22;;;;;;;17.20;8.23;;;;;;;12.10;20.39;102738.63;5071357;28;20057;-73
2022/03/01 09:39:48;;;;;;;17.13;8.10;;;;;;;10.24;21.75;102733.69;5070958;28;20087;-72
2022/03/01 09:42:16;;;;;;;15.85;7.15;;;;;;;10.20;21.71;102729.50;5069298;28;20108;-72
2022/03/01 09:44:43;;;;;;;14.77;7.55;;;;;;;10.13;21.98;102727.34;5070752;28;20119;-72
2022/03/01 09:47:10;;;;;;;15.77;7.95;;;;;;;10.04;21.85;102728.88;5070422;28;20051;-72
2022/03/01 09:49:36;;;;;;;19.40;8.60;;;;;;;8.96;23.34;102724.56;5070852;28;20132;-73
2022/03/01 09:52:07;;;;;;;17.73;7.83;;;;;;;9.58;22.55;102721.34;5070470;28;20044;-74
2022/03/01 09:54:34;;;;;;;15.27;7.85;;;;;;;10.12;21.86;102717.59;5071456;28;20048;-75
2022/03/01 09:57:00;;;;;;;13.40;7.20;;;;;;;9.24;22.33;102717.41;5066262;28;20041;-74
2022/03/01 09:59:27;;;;;;;18.65;8.85;;;;;;;9.92;22.01;102709.13;5070997;28;20053;-73
2022/03/01 10:01:53;;;;;;;14.20;7.63;;;;;;;10.54;21.50;102710.16;5062011;28;20044;-74
2022/03/01 10:04:21;;;;;;;14.40;7.75;;;;;;;11.41;20.36;102704.53;5069940;28;20050;-74
2022/03/01 10:06:49;;;;;;;16.42;7.25;;;;;;;10.02;21.55;102699.47;5071393;28;20052;-74
2022/03/01 10:09:18;;;;;;;13.43;7.45;;;;;;;10.81;20.93;102697.41;5070786;28;20048;-74
2022/03/01 10:11:47;;;;;;;13.77;7.90;;;;;;;9.84;21.66;102690.03;5071696;28;20049;-74
2022/03/01 10:14:15;;;;;;;16.70;7.97;;;;;;;11.37;20.59;102689.56;5072404;28;20131;-74
2022/03/01 10:16:44;;;;;;;11.95;6.50;;;;;;;11.60;20.05;102686.97;5071976;28;20393;-74
2022/03/01 10:19:19;;;;;;;16.95;7.65;;;;;;;11.52;19.75;102684.00;5066957;28;20066;-74
2022/03/01 10:21:57;;;;;;;12.18;6.82;;;;;;;10.99;20.14;102679.06;5070758;28;20083;-73
2022/03/01 10:24:24;;;;;;;15.05;7.25;;;;;;;11.41;19.70;102680.31;5071605;28;20467;-73
2022/03/01 10:26:56;;;;;;;15.77;6.82;;;;;;;11.84;19.40;102678.84;5071019;28;20068;-73
2022/03/01 10:29:47;;;;;;;14.23;7.35;;;;;;;11.33;20.05;102674.66;5054370;28;20040;-73
2022/03/01 10:32:14;;;;;;;13.93;7.07;;;;;;;10.76;20.59;102680.78;5071295;28;20056;-77
2022/03/01 10:35:04;;;;;;;13.35;7.20;;;;;;;10.74;20.64;102667.47;5070924;28;20136;-73
2022/03/01 10:37:33;;;;;;;13.68;6.50;;;;;;;11.58;19.65;102656.63;5070275;28;20451;-73
2022/03/01 10:40:22;;;;;;;13.23;6.60;;;;;;;10.42;21.08;102664.44;5070585;28;20075;-74
2022/03/01 10:43:09;;;;;;;12.55;7.18;;;;;;;11.43;20.09;102656.00;5070476;28;20528;-73
2022/03/01 10:45:47;;;;;;;11.57;6.35;;;;;;;11.23;19.59;102654.84;5070366;28;20083;-73
2022/03/01 10:48:24;;;;;;;13.02;6.43;;;;;;;9.15;22.38;102661.75;5052710;28;20060;-73
2022/03/01 10:51:05;;;;;;;11.27;6.03;;;;;;;9.94;21.14;102647.38;5069756;28;20051;-73
2022/03/01 10:53:34;;;;;;;16.98;6.97;;;;;;;9.90;21.23;102641.38;5070799;28;20124;-73
2022/03/01 10:56:02;;;;;;;15.65;6.45;;;;;;;7.76;23.15;102652.84;5070136;28;20067;-74
2022/03/01 10:58:30;;;;;;;14.52;6.38;;;;;;;8.78;22.30;102640.09;5069161;28;20083;-74
2022/03/01 11:00:57;;;;;;;11.50;6.03;;;;;;;8.65;22.80;102647.25;5071325;28;20131;-73
2022/03/01 11:03:24;;;;;;;14.70;6.82;;;;;;;9.83;21.21;102645.44;5071062;28;20396;-73
2022/03/01 11:05:54;;;;;;;13.20;6.30;;;;;;;9.73;21.11;102639.03;5073542;28;20076;-72
2022/03/01 11:08:35;;;;;;;15.23;6.18;;;;;;;10.32;20.40;102643.75;5062853;28;20045;-73
2022/03/01 11:11:05;;;;;;;13.32;7.13;;;;;;;10.90;20.48;102636.78;5073567;28;20037;-71
2022/03/01 11:13:35;;;;;;;14.73;6.50;;;;;;;10.46;20.24;102630.19;5073149;28;20197;-72
2022/03/01 11:16:20;;;;;;;14.85;6.97;;;;;;;10.30;20.80;102622.38;5073510;28;20072;-73
2022/03/01 11:19:14;;;;;;;19.05;7.10;;;;;;;8.88;21.90;102622.47;5072373;28;20048;-73
2022/03/01 11:21:45;;;;;;;14.95;6.43;;;;;;;8.49;22.66;102624.16;5055717;28;20079;-72
2022/03/01 11:24:15;;;;;;;;;;;;;;;7.92;23.23;102623.41;5074226;28;20040;-73
2022/03/01 11:26:41;;;;;;;15.35;5.90;;;;;;;9.00;22.06;102602.06;5072867;28;19962;-73